sensor_id;sensor_type;location;lat;lon;timestamp;pressure;altitude;pressure_sealevel;temperature;humidity
34925;BME280;21130;51.728;8.748;2023-11-19T00:00:22;99844.41;;;8.52;100.00
34925;BME280;21130;51.728;8.748;2023-11-19T00:02:48;99842.56;;;8.57;100.00
34925;BME280;21130;51.728;8.748;2023-11-19T00:05:15;99839.75;;;8.69;100.00
34925;BME280;21130;51.728;8.748;2023-11-19T00:07:42;99820.06;;;8.82;100.00
34925;BME280;21130;51.728;8.748;2023-11-19T00:10:10;99824.25;;;8.85;100.00
34925;BME280;21130;51.728;8.748;2023-11-19T00:12:37;99821.34;;;8.92;100.00
34925;BME280;21130;51.728;8.748;2023-11-19T00:15:07;99817.16;;;9.06;100.00
34925;BME280;21130;51.728;8.748;2023-11-19T00:17:36;99817.66;;;9.03;100.00
34925;BME280;21130;51.728;8.748;2023-11-19T00:20:04;99809.34;;;9.03;100.00
34925;BME280;21130;51.728;8.748;2023-11-19T00:22:31;99801.88;;;9.03;100.00
34925;BME280;21130;51.728;8.748;2023-11-19T00:24:58;99802.47;;;9.05;100.00
34925;BME280;21130;51.728;8.748;2023-11-19T00:27:24;99787.47;;;9.01;100.00
34925;BME280;21130;51.728;8.748;2023-11-19T00:29:51;99797.44;;;9.02;100.00
34925;BME280;21130;51.728;8.748;2023-11-19T00:32:19;99806.84;;;9.01;100.00
34925;BME280;21130;51.728;8.748;2023-11-19T00:34:45;99800.69;;;8.99;100.00
34925;BME280;21130;51.728;8.748;2023-11-19T00:37:13;99779.41;;;9.00;100.00
34925;BME280;21130;51.728;8.748;2023-11-19T00:39:40;99773.84;;;9.00;100.00
34925;BME280;21130;51.728;8.748;2023-11-19T00:42:07;99778.06;;;9.02;100.00
34925;BME280;21130;51.728;8.748;2023-11-19T00:44:35;99775.03;;;9.04;100.00
34925;BME280;21130;51.728;8.748;2023-11-19T00:47:02;99788.72;;;9.11;100.00
34925;BME280;21130;51.728;8.748;2023-11-19T00:49:39;99784.34;;;9.15;100.00
34925;BME280;21130;51.728;8.748;2023-11-19T00:52:05;99776.38;;;9.18;100.00
34925;BME280;21130;51.728;8.748;2023-11-19T00:54:32;99772.00;;;9.22;100.00
34925;BME280;21130;51.728;8.748;2023-11-19T00:56:59;99751.53;;;9.23;100.00
34925;BME280;21130;51.728;8.748;2023-11-19T00:59:26;99766.13;;;9.36;100.00
34925;BME280;21130;51.728;8.748;2023-11-19T01:01:53;99762.25;;;9.37;100.00
34925;BME280;21130;51.728;8.748;2023-11-19T01:04:21;99746.78;;;9.41;100.00
34925;BME280;21130;51.728;8.748;2023-11-19T01:06:50;99752.81;;;9.38;100.00
34925;BME280;21130;51.728;8.748;2023-11-19T01:09:17;99752.34;;;9.41;100.00
34925;BME280;21130;51.728;8.748;2023-11-19T01:11:43;99753.34;;;9.35;100.00
34925;BME280;21130;51.728;8.748;2023-11-19T01:14:10;99748.91;;;9.34;100.00
34925;BME280;21130;51.728;8.748;2023-11-19T01:16:36;99746.72;;;9.36;100.00
34925;BME280;21130;51.728;8.748;2023-11-19T01:19:03;99754.44;;;9.34;100.00
34925;BME280;21130;51.728;8.748;2023-11-19T01:21:30;99748.31;;;9.32;100.00
34925;BME280;21130;51.728;8.748;2023-11-19T01:23:58;99745.94;;;9.40;100.00
34925;BME280;21130;51.728;8.748;2023-11-19T01:26:25;99742.75;;;9.48;100.00
34925;BME280;21130;51.728;8.748;2023-11-19T01:28:51;99746.94;;;9.51;100.00
34925;BME280;21130;51.728;8.748;2023-11-19T01:31:18;99743.06;;;9.52;100.00
34925;BME280;21130;51.728;8.748;2023-11-19T01:33:45;99732.63;;;9.59;100.00
34925;BME280;21130;51.728;8.748;2023-11-19T01:36:13;99729.84;;;9.59;100.00
34925;BME280;21130;51.728;8.748;2023-11-19T01:38:39;99732.38;;;9.61;100.00
34925;BME280;21130;51.728;8.748;2023-11-19T01:41:07;99732.16;;;9.67;100.00
34925;BME280;21130;51.728;8.748;2023-11-19T01:43:34;99729.75;;;9.71;100.00
34925;BME280;21130;51.728;8.748;2023-11-19T01:46:01;99732.22;;;9.72;100.00
34925;BME280;21130;51.728;8.748;2023-11-19T01:48:29;99728.09;;;9.75;100.00
34925;BME280;21130;51.728;8.748;2023-11-19T01:50:56;99730.03;;;9.74;100.00
34925;BME280;21130;51.728;8.748;2023-11-19T01:53:23;99723.09;;;9.72;100.00
34925;BME280;21130;51.728;8.748;2023-11-19T01:55:50;99736.09;;;9.71;100.00
34925;BME280;21130;51.728;8.748;2023-11-19T01:58:19;99731.94;;;9.69;100.00
34925;BME280;21130;51.728;8.748;2023-11-19T02:00:46;99727.28;;;9.74;100.00
34925;BME280;21130;51.728;8.748;2023-11-19T02:03:14;99731.16;;;9.73;100.00
34925;BME280;21130;51.728;8.748;2023-11-19T02:05:41;99717.28;;;9.73;100.00
34925;BME280;21130;51.728;8.748;2023-11-19T02:08:08;99704.03;;;9.76;100.00
34925;BME280;21130;51.728;8.748;2023-11-19T02:10:34;99693.38;;;9.67;100.00
34925;BME280;21130;51.728;8.748;2023-11-19T02:13:02;99680.88;;;9.65;100.00
34925;BME280;21130;51.728;8.748;2023-11-19T02:15:32;99680.88;;;9.65;100.00
34925;BME280;21130;51.728;8.748;2023-11-19T02:18:19;99687.19;;;9.60;100.00
34925;BME280;21130;51.728;8.748;2023-11-19T02:20:49;99678.06;;;9.60;100.00
34925;BME280;21130;51.728;8.748;2023-11-19T02:23:17;99671.09;;;9.57;100.00
34925;BME280;21130;51.728;8.748;2023-11-19T02:25:51;99665.84;;;9.56;100.00
34925;BME280;21130;51.728;8.748;2023-11-19T02:28:23;99665.84;;;9.56;100.00
34925;BME280;21130;51.728;8.748;2023-11-19T02:30:49;99668.59;;;9.56;100.00
34925;BME280;21130;51.728;8.748;2023-11-19T02:33:16;99671.63;;;9.54;100.00
34925;BME280;21130;51.728;8.748;2023-11-19T02:35:42;99669.69;;;9.55;100.00
34925;BME280;21130;51.728;8.748;2023-11-19T02:38:09;99666.66;;;9.56;100.00
34925;BME280;21130;51.728;8.748;2023-11-19T02:40:36;99656.41;;;9.57;100.00
34925;BME280;21130;51.728;8.748;2023-11-19T02:43:02;99644.22;;;9.58;100.00
34925;BME280;21130;51.728;8.748;2023-11-19T02:45:31;99637.59;;;9.59;100.00
34925;BME280;21130;51.728;8.748;2023-11-19T02:47:58;99639.56;;;9.58;100.00
34925;BME280;21130;51.728;8.748;2023-11-19T02:50:27;99629.34;;;9.64;100.00
34925;BME280;21130;51.728;8.748;2023-11-19T02:52:54;99616.34;;;9.64;100.00
34925;BME280;21130;51.728;8.748;2023-11-19T02:55:22;99614.16;;;9.66;100.00
34925;BME280;21130;51.728;8.748;2023-11-19T02:57:49;99616.38;;;9.69;100.00
34925;BME280;21130;51.728;8.748;2023-11-19T03:00:19;99629.72;;;9.72;100.00
34925;BME280;21130;51.728;8.748;2023-11-19T03:02:50;99632.34;;;9.84;100.00
34925;BME280;21130;51.728;8.748;2023-11-19T03:05:25;99629.25;;;9.81;100.00
34925;BME280;21130;51.728;8.748;2023-11-19T03:07:51;99640.44;;;9.91;100.00
34925;BME280;21130;51.728;8.748;2023-11-19T03:10:18;99644.69;;;9.99;100.00
34925;BME280;21130;51.728;8.748;2023-11-19T03:12:45;99656.13;;;10.07;100.00
34925;BME280;21130;51.728;8.748;2023-11-19T03:15:11;99649.75;;;10.07;100.00
34925;BME280;21130;51.728;8.748;2023-11-19T03:17:39;99655.59;;;10.10;100.00
34925;BME280;21130;51.728;8.748;2023-11-19T03:20:09;99636.56;;;10.19;100.00
34925;BME280;21130;51.728;8.748;2023-11-19T03:22:38;99617.44;;;10.23;100.00
34925;BME280;21130;51.728;8.748;2023-11-19T03:25:07;99609.94;;;10.23;100.00
34925;BME280;21130;51.728;8.748;2023-11-19T03:27:34;99618.84;;;10.25;100.00
34925;BME280;21130;51.728;8.748;2023-11-19T03:30:02;99626.41;;;10.30;100.00
34925;BME280;21130;51.728;8.748;2023-11-19T03:32:30;99628.13;;;10.36;100.00
34925;BME280;21130;51.728;8.748;2023-11-19T03:34:56;99622.88;;;10.40;100.00
34925;BME280;21130;51.728;8.748;2023-11-19T03:37:25;99629.84;;;10.42;100.00
34925;BME280;21130;51.728;8.748;2023-11-19T03:39:51;99617.09;;;10.41;100.00
34925;BME280;21130;51.728;8.748;2023-11-19T03:42:19;99618.75;;;10.42;100.00
34925;BME280;21130;51.728;8.748;2023-11-19T03:44:45;99608.50;;;10.48;100.00
34925;BME280;21130;51.728;8.748;2023-11-19T03:47:12;99604.38;;;10.50;100.00
34925;BME280;21130;51.728;8.748;2023-11-19T03:49:38;99606.34;;;10.55;100.00
34925;BME280;21130;51.728;8.748;2023-11-19T03:52:05;99601.63;;;10.55;100.00
34925;BME280;21130;51.728;8.748;2023-11-19T03:54:33;99614.13;;;10.58;100.00
34925;BME280;21130;51.728;8.748;2023-11-19T03:56:59;99611.34;;;10.58;100.00
34925;BME280;21130;51.728;8.748;2023-11-19T03:59:28;99612.22;;;10.58;100.00
34925;BME280;21130;51.728;8.748;2023-11-19T04:01:55;99614.16;;;10.63;100.00
34925;BME280;21130;51.728;8.748;2023-11-19T04:04:21;99622.22;;;10.65;100.00
34925;BME280;21130;51.728;8.748;2023-11-19T04:06:48;99609.75;;;10.67;100.00
34925;BME280;21130;51.728;8.748;2023-11-19T04:09:15;99614.47;;;10.67;100.00
34925;BME280;21130;51.728;8.748;2023-11-19T04:11:43;99623.38;;;10.69;100.00
34925;BME280;21130;51.728;8.748;2023-11-19T04:14:12;99629.75;;;10.69;100.00
34925;BME280;21130;51.728;8.748;2023-11-19T04:16:38;99643.09;;;10.72;100.00
34925;BME280;21130;51.728;8.748;2023-11-19T04:19:05;99636.72;;;10.72;100.00
34925;BME280;21130;51.728;8.748;2023-11-19T04:21:31;99635.31;;;10.69;100.00
34925;BME280;21130;51.728;8.748;2023-11-19T04:23:58;99629.47;;;10.71;100.00
34925;BME280;21130;51.728;8.748;2023-11-19T04:26:24;99630.03;;;10.73;100.00
34925;BME280;21130;51.728;8.748;2023-11-19T04:28:52;99631.75;;;10.74;100.00
34925;BME280;21130;51.728;8.748;2023-11-19T04:31:19;99630.66;;;10.80;100.00
34925;BME280;21130;51.728;8.748;2023-11-19T04:33:45;99629.81;;;10.79;100.00
34925;BME280;21130;51.728;8.748;2023-11-19T04:36:12;99621.22;;;10.76;100.00
34925;BME280;21130;51.728;8.748;2023-11-19T04:38:39;99619.81;;;10.73;100.00
34925;BME280;21130;51.728;8.748;2023-11-19T04:41:06;99621.44;;;10.69;100.00
34925;BME280;21130;51.728;8.748;2023-11-19T04:43:33;99618.47;;;10.81;100.00
34925;BME280;21130;51.728;8.748;2023-11-19T04:46:03;99620.09;;;10.77;100.00
34925;BME280;21130;51.728;8.748;2023-11-19T04:48:29;99612.06;;;10.80;100.00
34925;BME280;21130;51.728;8.748;2023-11-19T04:50:56;99615.09;;;10.74;100.00
34925;BME280;21130;51.728;8.748;2023-11-19T04:53:23;99610.41;;;10.79;100.00
34925;BME280;21130;51.728;8.748;2023-11-19T04:55:49;99614.84;;;10.86;100.00
34925;BME280;21130;51.728;8.748;2023-11-19T04:58:16;99617.38;;;10.87;100.00
34925;BME280;21130;51.728;8.748;2023-11-19T05:00:42;99618.22;;;10.88;100.00
34925;BME280;21130;51.728;8.748;2023-11-19T05:03:10;99599.56;;;10.83;100.00
34925;BME280;21130;51.728;8.748;2023-11-19T05:05:37;99605.41;;;10.81;100.00
34925;BME280;21130;51.728;8.748;2023-11-19T05:08:03;99595.44;;;10.86;100.00
34925;BME280;21130;51.728;8.748;2023-11-19T05:10:30;99605.69;;;10.85;100.00
34925;BME280;21130;51.728;8.748;2023-11-19T05:12:57;99600.97;;;10.86;100.00
34925;BME280;21130;51.728;8.748;2023-11-19T05:15:25;99604.63;;;10.86;100.00
34925;BME280;21130;51.728;8.748;2023-11-19T05:17:51;99605.69;;;10.85;100.00
34925;BME280;21130;51.728;8.748;2023-11-19T05:20:19;99596.50;;;10.79;100.00
34925;BME280;21130;51.728;8.748;2023-11-19T05:22:46;99594.56;;;10.80;100.00
34925;BME280;21130;51.728;8.748;2023-11-19T05:25:13;99602.63;;;10.76;100.00
34925;BME280;21130;51.728;8.748;2023-11-19T05:27:39;99611.25;;;10.85;100.00
34925;BME280;21130;51.728;8.748;2023-11-19T05:30:06;99616.22;;;10.83;100.00
34925;BME280;21130;51.728;8.748;2023-11-19T05:32:35;99610.13;;;10.76;100.00
34925;BME280;21130;51.728;8.748;2023-11-19T05:35:02;99609.22;;;10.70;100.00
34925;BME280;21130;51.728;8.748;2023-11-19T05:37:30;99606.72;;;10.69;100.00
34925;BME280;21130;51.728;8.748;2023-11-19T05:39:56;99620.00;;;10.62;100.00
34925;BME280;21130;51.728;8.748;2023-11-19T05:42:25;99608.88;;;10.56;100.00
34925;BME280;21130;51.728;8.748;2023-11-19T05:44:52;99616.34;;;10.56;100.00
34925;BME280;21130;51.728;8.748;2023-11-19T05:47:19;99623.81;;;10.55;100.00
34925;BME280;21130;51.728;8.748;2023-11-19T05:49:45;99616.63;;;10.54;100.00
34925;BME280;21130;51.728;8.748;2023-11-19T05:52:12;99627.13;;;10.52;100.00
34925;BME280;21130;51.728;8.748;2023-11-19T05:54:39;99635.75;;;10.51;100.00
34925;BME280;21130;51.728;8.748;2023-11-19T05:57:07;99633.25;;;10.54;100.00
34925;BME280;21130;51.728;8.748;2023-11-19T05:59:34;99632.44;;;10.54;100.00
34925;BME280;21130;51.728;8.748;2023-11-19T06:02:01;99641.34;;;10.56;100.00
34925;BME280;21130;51.728;8.748;2023-11-19T06:04:28;99628.88;;;10.58;100.00
34925;BME280;21130;51.728;8.748;2023-11-19T06:06:54;99637.22;;;10.64;100.00
34925;BME280;21130;51.728;8.748;2023-11-19T06:09:21;99636.88;;;10.55;100.00
34925;BME280;21130;51.728;8.748;2023-11-19T06:11:52;99631.31;;;10.55;100.00
34925;BME280;21130;51.728;8.748;2023-11-19T06:14:18;99624.97;;;10.59;100.00
34925;BME280;21130;51.728;8.748;2023-11-19T06:16:45;99633.00;;;10.56;100.00
34925;BME280;21130;51.728;8.748;2023-11-19T06:19:11;99639.41;;;10.62;100.00
34925;BME280;21130;51.728;8.748;2023-11-19T06:21:38;99635.53;;;10.63;100.00
34925;BME280;21130;51.728;8.748;2023-11-19T06:24:05;99630.78;;;10.58;100.00
34925;BME280;21130;51.728;8.748;2023-11-19T06:26:31;99623.31;;;10.58;100.00
34925;BME280;21130;51.728;8.748;2023-11-19T06:29:01;99619.72;;;10.63;100.00
34925;BME280;21130;51.728;8.748;2023-11-19T06:31:28;99614.16;;;10.63;100.00
34925;BME280;21130;51.728;8.748;2023-11-19T06:33:54;99617.22;;;10.62;100.00
34925;BME280;21130;51.728;8.748;2023-11-19T06:36:21;99616.94;;;10.63;100.00
34925;BME280;21130;51.728;8.748;2023-11-19T06:38:47;99622.22;;;10.65;100.00
34925;BME280;21130;51.728;8.748;2023-11-19T06:41:14;99613.06;;;10.64;100.00
34925;BME280;21130;51.728;8.748;2023-11-19T06:43:40;99641.09;;;10.63;100.00
34925;BME280;21130;51.728;8.748;2023-11-19T06:46:15;99647.47;;;10.63;100.00
34925;BME280;21130;51.728;8.748;2023-11-19T06:48:42;99647.78;;;10.67;100.00
34925;BME280;21130;51.728;8.748;2023-11-19T06:51:13;99640.50;;;10.60;100.00
34925;BME280;21130;51.728;8.748;2023-11-19T06:53:49;99639.97;;;10.58;100.00
34925;BME280;21130;51.728;8.748;2023-11-19T06:56:20;99638.81;;;10.54;100.00
34925;BME280;21130;51.728;8.748;2023-11-19T06:58:47;99638.19;;;10.47;100.00
34925;BME280;21130;51.728;8.748;2023-11-19T07:01:14;99641.50;;;10.44;100.00
34925;BME280;21130;51.728;8.748;2023-11-19T07:03:42;99645.91;;;10.40;100.00
34925;BME280;21130;51.728;8.748;2023-11-19T07:06:10;99658.16;;;10.44;100.00
34925;BME280;21130;51.728;8.748;2023-11-19T07:08:38;99651.50;;;10.45;100.00
34925;BME280;21130;51.728;8.748;2023-11-19T07:11:05;99645.94;;;10.45;100.00
34925;BME280;21130;51.728;8.748;2023-11-19T07:13:31;99650.41;;;10.46;100.00
34925;BME280;21130;51.728;8.748;2023-11-19T07:15:58;99654.31;;;10.50;100.00
34925;BME280;21130;51.728;8.748;2023-11-19T07:18:25;99655.41;;;10.49;100.00
34925;BME280;21130;51.728;8.748;2023-11-19T07:20:53;99654.84;;;10.47;100.00
34925;BME280;21130;51.728;8.748;2023-11-19T07:23:31;99654.84;;;10.47;100.00
34925;BME280;21130;51.728;8.748;2023-11-19T07:25:58;99660.94;;;10.44;100.00
34925;BME280;21130;51.728;8.748;2023-11-19T07:28:24;99667.06;;;10.46;100.00
34925;BME280;21130;51.728;8.748;2023-11-19T07:30:51;99668.19;;;10.50;100.00
34925;BME280;21130;51.728;8.748;2023-11-19T07:33:16;99670.66;;;10.47;100.00
34925;BME280;21130;51.728;8.748;2023-11-19T07:35:43;99674.00;;;10.49;100.00
34925;BME280;21130;51.728;8.748;2023-11-19T07:38:11;99675.38;;;10.46;100.00
34925;BME280;21130;51.728;8.748;2023-11-19T07:40:38;99679.19;;;10.40;100.00
34925;BME280;21130;51.728;8.748;2023-11-19T07:43:04;99678.94;;;10.42;100.00
34925;BME280;21130;51.728;8.748;2023-11-19T07:45:32;99684.72;;;10.40;100.00
34925;BME280;21130;51.728;8.748;2023-11-19T07:47:59;99676.44;;;10.45;100.00
34925;BME280;21130;51.728;8.748;2023-11-19T07:50:26;99680.91;;;10.46;100.00
34925;BME280;21130;51.728;8.748;2023-11-19T07:52:53;99676.50;;;10.50;100.00
34925;BME280;21130;51.728;8.748;2023-11-19T07:55:37;99668.19;;;10.50;100.00
34925;BME280;21130;51.728;8.748;2023-11-19T07:58:03;99680.97;;;10.51;100.00
34925;BME280;21130;51.728;8.748;2023-11-19T08:00:30;99680.47;;;10.59;100.00
34925;BME280;21130;51.728;8.748;2023-11-19T08:02:56;99670.00;;;10.72;100.00
34925;BME280;21130;51.728;8.748;2023-11-19T08:05:23;99678.44;;;10.87;100.00
34925;BME280;21130;51.728;8.748;2023-11-19T08:07:50;99679.88;;;10.95;100.00
34925;BME280;21130;51.728;8.748;2023-11-19T08:10:18;99671.56;;;10.95;100.00
34925;BME280;21130;51.728;8.748;2023-11-19T08:12:46;99675.44;;;10.94;100.00
34925;BME280;21130;51.728;8.748;2023-11-19T08:15:12;99679.38;;;11.03;100.00
34925;BME280;21130;51.728;8.748;2023-11-19T08:17:39;99696.56;;;11.00;100.00
34925;BME280;21130;51.728;8.748;2023-11-19T08:20:07;99695.72;;;10.94;100.00
34925;BME280;21130;51.728;8.748;2023-11-19T08:22:35;99699.88;;;10.92;100.00
34925;BME280;21130;51.728;8.748;2023-11-19T08:25:03;99697.91;;;10.92;100.00
34925;BME280;21130;51.728;8.748;2023-11-19T08:27:29;99699.53;;;10.88;100.00
34925;BME280;21130;51.728;8.748;2023-11-19T08:29:57;99701.19;;;10.84;100.00
34925;BME280;21130;51.728;8.748;2023-11-19T08:32:23;99707.56;;;10.85;100.00
34925;BME280;21130;51.728;8.748;2023-11-19T08:34:50;99718.69;;;10.85;100.00
34925;BME280;21130;51.728;8.748;2023-11-19T08:37:17;99715.91;;;10.85;100.00
34925;BME280;21130;51.728;8.748;2023-11-19T08:39:46;99709.81;;;10.88;100.00
34925;BME280;21130;51.728;8.748;2023-11-19T08:42:12;99721.53;;;10.95;100.00
34925;BME280;21130;51.728;8.748;2023-11-19T08:44:39;99711.56;;;10.99;100.00
34925;BME280;21130;51.728;8.748;2023-11-19T08:47:10;99704.91;;;11.00;100.00
34925;BME280;21130;51.728;8.748;2023-11-19T08:49:37;99708.53;;;11.06;100.00
34925;BME280;21130;51.728;8.748;2023-11-19T08:52:04;99715.78;;;11.07;100.00
34925;BME280;21130;51.728;8.748;2023-11-19T08:54:32;99710.78;;;11.03;100.00
34925;BME280;21130;51.728;8.748;2023-11-19T08:56:59;99721.34;;;11.07;100.00
34925;BME280;21130;51.728;8.748;2023-11-19T08:59:25;99719.09;;;11.03;100.00
34925;BME280;21130;51.728;8.748;2023-11-19T09:01:52;99715.75;;;11.01;100.00
34925;BME280;21130;51.728;8.748;2023-11-19T09:04:20;99717.41;;;11.02;100.00
34925;BME280;21130;51.728;8.748;2023-11-19T09:06:47;99722.75;;;11.09;100.00
34925;BME280;21130;51.728;8.748;2023-11-19T09:09:14;99725.56;;;11.14;100.00
34925;BME280;21130;51.728;8.748;2023-11-19T09:11:40;99724.22;;;11.22;100.00
34925;BME280;21130;51.728;8.748;2023-11-19T09:14:08;99722.25;;;11.22;100.00
34925;BME280;21130;51.728;8.748;2023-11-19T09:16:34;99725.63;;;11.24;100.00
34925;BME280;21130;51.728;8.748;2023-11-19T09:19:01;99721.44;;;11.22;100.00
34925;BME280;21130;51.728;8.748;2023-11-19T09:21:29;99724.78;;;11.24;100.00
34925;BME280;21130;51.728;8.748;2023-11-19T09:23:55;99719.75;;;11.21;100.00
34925;BME280;21130;51.728;8.748;2023-11-19T09:26:22;99719.81;;;11.26;100.00
34925;BME280;21130;51.728;8.748;2023-11-19T09:28:49;99728.97;;;11.27;100.00
34925;BME280;21130;51.728;8.748;2023-11-19T09:31:16;99726.47;;;11.30;100.00
34925;BME280;21130;51.728;8.748;2023-11-19T09:33:44;99727.09;;;11.42;100.00
34925;BME280;21130;51.728;8.748;2023-11-19T09:36:12;99736.09;;;11.65;100.00
34925;BME280;21130;51.728;8.748;2023-11-19T09:38:41;99726.91;;;11.59;100.00
34925;BME280;21130;51.728;8.748;2023-11-19T09:41:07;99737.44;;;11.52;100.00
34925;BME280;21130;51.728;8.748;2023-11-19T09:43:38;99739.63;;;11.45;100.00
34925;BME280;21130;51.728;8.748;2023-11-19T09:46:06;99738.16;;;11.32;100.00
34925;BME280;21130;51.728;8.748;2023-11-19T09:48:35;99740.69;;;11.34;100.00
34925;BME280;21130;51.728;8.748;2023-11-19T09:51:02;99751.66;;;11.18;100.00
34925;BME280;21130;51.728;8.748;2023-11-19T09:53:30;99742.16;;;11.04;100.00
34925;BME280;21130;51.728;8.748;2023-11-19T09:56:00;99750.94;;;10.96;100.00
34925;BME280;21130;51.728;8.748;2023-11-19T09:58:28;99757.00;;;10.88;100.00
34925;BME280;21130;51.728;8.748;2023-11-19T10:00:55;99752.78;;;10.80;100.00
34925;BME280;21130;51.728;8.748;2023-11-19T10:03:24;99745.53;;;10.74;100.00
34925;BME280;21130;51.728;8.748;2023-11-19T10:05:50;99746.56;;;10.68;100.00
34925;BME280;21130;51.728;8.748;2023-11-19T10:08:17;99746.56;;;10.68;100.00
34925;BME280;21130;51.728;8.748;2023-11-19T10:10:43;99739.06;;;10.68;100.00
34925;BME280;21130;51.728;8.748;2023-11-19T10:13:12;99744.47;;;10.80;100.00
34925;BME280;21130;51.728;8.748;2023-11-19T10:15:40;99738.50;;;10.98;100.00
34925;BME280;21130;51.728;8.748;2023-11-19T10:18:06;99722.75;;;11.09;100.00
34925;BME280;21130;51.728;8.748;2023-11-19T10:20:36;99726.97;;;11.17;100.00
34925;BME280;21130;51.728;8.748;2023-11-19T10:23:03;99722.09;;;11.39;100.00
34925;BME280;21130;51.728;8.748;2023-11-19T10:25:30;99720.56;;;11.69;100.00
34925;BME280;21130;51.728;8.748;2023-11-19T10:27:57;99717.78;;;11.69;100.00
34925;BME280;21130;51.728;8.748;2023-11-19T10:30:26;99721.28;;;12.12;100.00
34925;BME280;21130;51.728;8.748;2023-11-19T10:33:04;99715.22;;;12.41;100.00
34925;BME280;21130;51.728;8.748;2023-11-19T10:35:32;99706.34;;;12.54;100.00
34925;BME280;21130;51.728;8.748;2023-11-19T10:38:00;99702.97;;;12.93;100.00
34925;BME280;21130;51.728;8.748;2023-11-19T10:40:39;99699.38;;;12.72;100.00
34925;BME280;21130;51.728;8.748;2023-11-19T10:43:06;99688.22;;;12.87;100.00
34925;BME280;21130;51.728;8.748;2023-11-19T10:45:35;99689.63;;;12.90;100.00
34925;BME280;21130;51.728;8.748;2023-11-19T10:48:02;99697.69;;;12.76;100.00
34925;BME280;21130;51.728;8.748;2023-11-19T10:50:32;99697.66;;;12.96;100.00
34925;BME280;21130;51.728;8.748;2023-11-19T10:52:59;99689.31;;;12.96;100.00
34925;BME280;21130;51.728;8.748;2023-11-19T10:55:27;99682.06;;;13.11;100.00
34925;BME280;21130;51.728;8.748;2023-11-19T10:57:59;99676.19;;;13.17;100.00
34925;BME280;21130;51.728;8.748;2023-11-19T11:00:26;99689.34;;;12.66;100.00
34925;BME280;21130;51.728;8.748;2023-11-19T11:03:00;99692.38;;;12.33;100.00
34925;BME280;21130;51.728;8.748;2023-11-19T11:05:27;99692.09;;;12.09;100.00
34925;BME280;21130;51.728;8.748;2023-11-19T11:07:55;99686.13;;;11.80;100.00
34925;BME280;21130;51.728;8.748;2023-11-19T11:10:25;99684.72;;;11.73;100.00
34925;BME280;21130;51.728;8.748;2023-11-19T11:12:54;99681.66;;;11.64;100.00
34925;BME280;21130;51.728;8.748;2023-11-19T11:15:26;99686.03;;;11.55;100.00
34925;BME280;21130;51.728;8.748;2023-11-19T11:17:59;99701.25;;;11.37;100.00
34925;BME280;21130;51.728;8.748;2023-11-19T11:20:27;99697.63;;;11.31;100.00
34925;BME280;21130;51.728;8.748;2023-11-19T11:23:10;99688.66;;;11.19;100.00
34925;BME280;21130;51.728;8.748;2023-11-19T11:25:47;99681.13;;;11.14;100.00
34925;BME280;21130;51.728;8.748;2023-11-19T11:28:26;99687.50;;;11.15;100.00
34925;BME280;21130;51.728;8.748;2023-11-19T11:31:08;99682.78;;;11.15;100.00
34925;BME280;21130;51.728;8.748;2023-11-19T11:33:54;99688.63;;;11.14;100.00
34925;BME280;21130;51.728;8.748;2023-11-19T11:36:26;99693.28;;;11.08;100.00
34925;BME280;21130;51.728;8.748;2023-11-19T11:38:53;99685.25;;;11.07;100.00
34925;BME280;21130;51.728;8.748;2023-11-19T11:41:25;99690.50;;;11.08;100.00
34925;BME280;21130;51.728;8.748;2023-11-19T11:43:53;99692.78;;;11.11;100.00
34925;BME280;21130;51.728;8.748;2023-11-19T11:46:55;99679.97;;;11.10;100.00
34925;BME280;21130;51.728;8.748;2023-11-19T11:49:30;99684.16;;;11.13;100.00
34925;BME280;21130;51.728;8.748;2023-11-19T11:51:58;99678.88;;;11.06;100.00
34925;BME280;21130;51.728;8.748;2023-11-19T11:54:26;99684.09;;;11.02;100.00
34925;BME280;21130;51.728;8.748;2023-11-19T11:57:02;99685.44;;;10.95;100.00
34925;BME280;21130;51.728;8.748;2023-11-19T11:59:36;99695.03;;;10.77;100.00
34925;BME280;21130;51.728;8.748;2023-11-19T12:02:03;99700.34;;;10.46;100.00
34925;BME280;21130;51.728;8.748;2023-11-19T12:04:31;99713.66;;;10.22;100.00
34925;BME280;21130;51.728;8.748;2023-11-19T12:07:04;99713.53;;;9.85;100.00
34925;BME280;21130;51.728;8.748;2023-11-19T12:09:31;99718.84;;;9.64;100.00
34925;BME280;21130;51.728;8.748;2023-11-19T12:12:07;99711.75;;;9.51;100.00
34925;BME280;21130;51.728;8.748;2023-11-19T12:15:05;99714.97;;;9.43;100.00
34925;BME280;21130;51.728;8.748;2023-11-19T12:17:44;99708.34;;;9.44;100.00
34925;BME280;21130;51.728;8.748;2023-11-19T12:20:16;99704.47;;;9.45;100.00
34925;BME280;21130;51.728;8.748;2023-11-19T12:22:44;99708.66;;;9.48;100.00
34925;BME280;21130;51.728;8.748;2023-11-19T12:25:11;99721.03;;;9.62;100.00
34925;BME280;21130;51.728;8.748;2023-11-19T12:27:39;99721.84;;;9.63;100.00
34925;BME280;21130;51.728;8.748;2023-11-19T12:30:06;99708.59;;;9.65;100.00
34925;BME280;21130;51.728;8.748;2023-11-19T12:32:39;99709.16;;;9.67;100.00
34925;BME280;21130;51.728;8.748;2023-11-19T12:35:07;99708.41;;;9.71;100.00
34925;BME280;21130;51.728;8.748;2023-11-19T12:37:40;99700.66;;;9.73;100.00
34925;BME280;21130;51.728;8.748;2023-11-19T12:40:17;99694.59;;;9.77;100.00
34925;BME280;21130;51.728;8.748;2023-11-19T12:42:54;99693.56;;;9.83;100.00
34925;BME280;21130;51.728;8.748;2023-11-19T12:45:22;99680.88;;;9.87;100.00
34925;BME280;21130;51.728;8.748;2023-11-19T12:47:49;99697.34;;;9.99;100.00
34925;BME280;21130;51.728;8.748;2023-11-19T12:50:17;99676.94;;;10.10;100.00
34925;BME280;21130;51.728;8.748;2023-11-19T12:52:56;99668.38;;;10.11;100.00
34925;BME280;21130;51.728;8.748;2023-11-19T12:55:27;99662.34;;;10.20;100.00
34925;BME280;21130;51.728;8.748;2023-11-19T12:57:54;99657.56;;;10.42;100.00